sensor_id;sensor_type;location;lat;lon;timestamp;P1;durP1;ratioP1;P2;durP2;ratioP2
55728;SDS011;41633;39.720;2.910;2023-03-23T00:01:20;5.78;;;1.90;;
55728;SDS011;41633;39.720;2.910;2023-03-23T00:03:53;7.80;;;1.67;;
55728;SDS011;41633;39.720;2.910;2023-03-23T00:06:24;7.47;;;1.80;;
55728;SDS011;41633;39.720;2.910;2023-03-23T00:08:52;6.38;;;2.00;;
55728;SDS011;41633;39.720;2.910;2023-03-23T00:11:25;6.88;;;2.00;;
55728;SDS011;41633;39.720;2.910;2023-03-23T00:13:56;6.25;;;1.70;;
55728;SDS011;41633;39.720;2.910;2023-03-23T00:16:28;6.13;;;1.80;;
55728;SDS011;41633;39.720;2.910;2023-03-23T00:18:57;5.65;;;1.60;;
55728;SDS011;41633;39.720;2.910;2023-03-23T00:21:27;4.55;;;1.48;;
55728;SDS011;41633;39.720;2.910;2023-03-23T00:24:04;7.75;;;2.55;;
55728;SDS011;41633;39.720;2.910;2023-03-23T00:26:34;5.07;;;1.65;;
55728;SDS011;41633;39.720;2.910;2023-03-23T00:29:03;5.30;;;1.48;;
55728;SDS011;41633;39.720;2.910;2023-03-23T00:31:30;7.32;;;1.80;;
55728;SDS011;41633;39.720;2.910;2023-03-23T00:33:59;5.20;;;1.23;;
55728;SDS011;41633;39.720;2.910;2023-03-23T00:36:31;7.35;;;1.75;;
55728;SDS011;41633;39.720;2.910;2023-03-23T00:38:59;9.57;;;3.85;;
55728;SDS011;41633;39.720;2.910;2023-03-23T00:41:26;11.93;;;5.95;;
55728;SDS011;41633;39.720;2.910;2023-03-23T00:43:57;10.15;;;4.07;;
55728;SDS011;41633;39.720;2.910;2023-03-23T00:46:27;5.97;;;1.90;;
55728;SDS011;41633;39.720;2.910;2023-03-23T00:48:55;4.70;;;1.30;;
55728;SDS011;41633;39.720;2.910;2023-03-23T00:51:23;7.13;;;1.45;;
55728;SDS011;41633;39.720;2.910;2023-03-23T00:53:51;5.38;;;1.48;;
55728;SDS011;41633;39.720;2.910;2023-03-23T00:56:20;5.07;;;1.38;;
55728;SDS011;41633;39.720;2.910;2023-03-23T00:58:50;6.57;;;1.60;;
55728;SDS011;41633;39.720;2.910;2023-03-23T01:01:16;5.57;;;1.60;;
55728;SDS011;41633;39.720;2.910;2023-03-23T01:03:44;5.18;;;1.38;;
55728;SDS011;41633;39.720;2.910;2023-03-23T01:06:12;5.30;;;1.33;;
55728;SDS011;41633;39.720;2.910;2023-03-23T01:08:41;6.53;;;1.67;;
55728;SDS011;41633;39.720;2.910;2023-03-23T01:11:13;7.53;;;2.30;;
55728;SDS011;41633;39.720;2.910;2023-03-23T01:13:42;6.47;;;1.60;;
55728;SDS011;41633;39.720;2.910;2023-03-23T01:16:10;6.13;;;1.55;;
55728;SDS011;41633;39.720;2.910;2023-03-23T01:18:39;6.90;;;1.70;;
55728;SDS011;41633;39.720;2.910;2023-03-23T01:21:11;4.13;;;1.30;;
55728;SDS011;41633;39.720;2.910;2023-03-23T01:23:40;8.05;;;1.30;;
55728;SDS011;41633;39.720;2.910;2023-03-23T01:26:06;5.47;;;1.10;;
55728;SDS011;41633;39.720;2.910;2023-03-23T01:28:36;5.75;;;1.20;;
55728;SDS011;41633;39.720;2.910;2023-03-23T01:31:05;4.95;;;1.23;;
55728;SDS011;41633;39.720;2.910;2023-03-23T01:33:32;6.43;;;1.30;;
55728;SDS011;41633;39.720;2.910;2023-03-23T01:36:02;6.40;;;1.70;;
55728;SDS011;41633;39.720;2.910;2023-03-23T01:38:30;4.63;;;1.13;;
55728;SDS011;41633;39.720;2.910;2023-03-23T01:40:58;5.57;;;1.10;;
55728;SDS011;41633;39.720;2.910;2023-03-23T01:43:26;4.50;;;1.13;;
55728;SDS011;41633;39.720;2.910;2023-03-23T01:45:54;8.15;;;1.52;;
55728;SDS011;41633;39.720;2.910;2023-03-23T01:48:25;5.28;;;1.33;;
55728;SDS011;41633;39.720;2.910;2023-03-23T01:51:09;6.43;;;1.67;;
55728;SDS011;41633;39.720;2.910;2023-03-23T01:53:45;5.80;;;1.73;;
55728;SDS011;41633;39.720;2.910;2023-03-23T01:56:18;7.53;;;2.10;;
55728;SDS011;41633;39.720;2.910;2023-03-23T01:58:52;6.45;;;2.20;;
55728;SDS011;41633;39.720;2.910;2023-03-23T02:01:20;5.32;;;1.70;;
55728;SDS011;41633;39.720;2.910;2023-03-23T02:03:46;5.38;;;1.65;;
55728;SDS011;41633;39.720;2.910;2023-03-23T02:06:14;6.30;;;1.80;;
55728;SDS011;41633;39.720;2.910;2023-03-23T02:08:43;7.95;;;1.55;;
55728;SDS011;41633;39.720;2.910;2023-03-23T02:11:15;5.25;;;1.50;;
55728;SDS011;41633;39.720;2.910;2023-03-23T02:13:43;5.43;;;1.50;;
55728;SDS011;41633;39.720;2.910;2023-03-23T02:19:03;6.65;;;1.60;;
55728;SDS011;41633;39.720;2.910;2023-03-23T02:24:26;5.88;;;1.50;;
55728;SDS011;41633;39.720;2.910;2023-03-23T02:27:01;5.97;;;1.40;;
55728;SDS011;41633;39.720;2.910;2023-03-23T02:32:26;5.40;;;1.70;;
55728;SDS011;41633;39.720;2.910;2023-03-23T02:35:02;5.72;;;1.33;;
55728;SDS011;41633;39.720;2.910;2023-03-23T02:37:49;4.47;;;1.52;;
55728;SDS011;41633;39.720;2.910;2023-03-23T02:40:21;6.60;;;1.80;;
55728;SDS011;41633;39.720;2.910;2023-03-23T02:42:52;4.68;;;1.33;;
55728;SDS011;41633;39.720;2.910;2023-03-23T02:45:21;5.45;;;1.58;;
55728;SDS011;41633;39.720;2.910;2023-03-23T02:47:49;5.30;;;1.40;;
55728;SDS011;41633;39.720;2.910;2023-03-23T02:50:19;3.33;;;1.10;;
55728;SDS011;41633;39.720;2.910;2023-03-23T02:52:46;5.50;;;1.60;;
55728;SDS011;41633;39.720;2.910;2023-03-23T02:55:16;6.57;;;1.40;;
55728;SDS011;41633;39.720;2.910;2023-03-23T02:57:45;5.30;;;1.48;;
55728;SDS011;41633;39.720;2.910;2023-03-23T03:00:13;7.35;;;2.15;;
55728;SDS011;41633;39.720;2.910;2023-03-23T03:02:46;3.95;;;1.20;;
55728;SDS011;41633;39.720;2.910;2023-03-23T03:11:09;5.93;;;1.70;;
55728;SDS011;41633;39.720;2.910;2023-03-23T03:19:06;5.00;;;1.70;;
55728;SDS011;41633;39.720;2.910;2023-03-23T03:21:36;6.43;;;1.80;;
55728;SDS011;41633;39.720;2.910;2023-03-23T03:24:05;6.20;;;2.00;;
55728;SDS011;41633;39.720;2.910;2023-03-23T03:26:36;6.78;;;2.20;;
55728;SDS011;41633;39.720;2.910;2023-03-23T03:29:03;6.53;;;1.88;;
55728;SDS011;41633;39.720;2.910;2023-03-23T03:31:34;3.75;;;1.20;;
55728;SDS011;41633;39.720;2.910;2023-03-23T03:34:04;4.25;;;1.08;;
55728;SDS011;41633;39.720;2.910;2023-03-23T03:36:33;6.50;;;1.48;;
55728;SDS011;41633;39.720;2.910;2023-03-23T03:39:02;4.90;;;1.58;;
55728;SDS011;41633;39.720;2.910;2023-03-23T03:41:34;4.95;;;1.30;;
55728;SDS011;41633;39.720;2.910;2023-03-23T03:44:01;6.88;;;1.38;;
55728;SDS011;41633;39.720;2.910;2023-03-23T03:46:29;6.10;;;1.63;;
55728;SDS011;41633;39.720;2.910;2023-03-23T03:48:59;4.40;;;1.33;;
55728;SDS011;41633;39.720;2.910;2023-03-23T03:51:27;6.63;;;1.40;;
55728;SDS011;41633;39.720;2.910;2023-03-23T03:53:55;4.78;;;1.30;;
55728;SDS011;41633;39.720;2.910;2023-03-23T03:56:22;4.68;;;1.50;;
55728;SDS011;41633;39.720;2.910;2023-03-23T03:58:49;5.65;;;1.40;;
55728;SDS011;41633;39.720;2.910;2023-03-23T04:01:17;4.88;;;1.20;;
55728;SDS011;41633;39.720;2.910;2023-03-23T04:03:46;3.78;;;1.15;;
55728;SDS011;41633;39.720;2.910;2023-03-23T04:06:17;5.07;;;1.25;;
55728;SDS011;41633;39.720;2.910;2023-03-23T04:08:44;4.47;;;1.40;;
55728;SDS011;41633;39.720;2.910;2023-03-23T04:11:13;4.65;;;1.20;;
55728;SDS011;41633;39.720;2.910;2023-03-23T04:13:42;5.05;;;1.42;;
55728;SDS011;41633;39.720;2.910;2023-03-23T04:16:08;3.28;;;1.13;;
55728;SDS011;41633;39.720;2.910;2023-03-23T04:18:34;4.13;;;1.02;;
55728;SDS011;41633;39.720;2.910;2023-03-23T04:21:04;3.20;;;1.00;;
55728;SDS011;41633;39.720;2.910;2023-03-23T04:23:33;3.38;;;0.90;;
55728;SDS011;41633;39.720;2.910;2023-03-23T04:26:01;3.13;;;0.95;;
55728;SDS011;41633;39.720;2.910;2023-03-23T04:28:29;4.25;;;1.20;;
55728;SDS011;41633;39.720;2.910;2023-03-23T04:31:08;4.22;;;1.10;;
55728;SDS011;41633;39.720;2.910;2023-03-23T04:33:38;8.63;;;1.83;;
55728;SDS011;41633;39.720;2.910;2023-03-23T04:36:06;9.57;;;5.15;;
55728;SDS011;41633;39.720;2.910;2023-03-23T04:41:01;21.77;;;16.73;;
55728;SDS011;41633;39.720;2.910;2023-03-23T04:43:28;19.38;;;12.50;;
55728;SDS011;41633;39.720;2.910;2023-03-23T04:45:56;14.82;;;8.88;;
55728;SDS011;41633;39.720;2.910;2023-03-23T04:48:23;9.45;;;4.05;;
55728;SDS011;41633;39.720;2.910;2023-03-23T04:50:51;9.55;;;3.17;;
55728;SDS011;41633;39.720;2.910;2023-03-23T04:53:18;7.57;;;2.72;;
55728;SDS011;41633;39.720;2.910;2023-03-23T04:55:47;7.32;;;2.65;;
55728;SDS011;41633;39.720;2.910;2023-03-23T04:58:16;7.10;;;2.38;;
55728;SDS011;41633;39.720;2.910;2023-03-23T05:00:45;8.23;;;2.30;;
55728;SDS011;41633;39.720;2.910;2023-03-23T05:03:16;8.07;;;2.20;;
55728;SDS011;41633;39.720;2.910;2023-03-23T05:05:45;5.93;;;1.63;;
55728;SDS011;41633;39.720;2.910;2023-03-23T05:08:22;9.77;;;2.55;;
55728;SDS011;41633;39.720;2.910;2023-03-23T05:10:55;6.68;;;1.92;;
55728;SDS011;41633;39.720;2.910;2023-03-23T05:13:21;6.13;;;1.65;;
55728;SDS011;41633;39.720;2.910;2023-03-23T05:15:49;4.43;;;1.42;;
55728;SDS011;41633;39.720;2.910;2023-03-23T05:18:17;6.47;;;1.58;;
55728;SDS011;41633;39.720;2.910;2023-03-23T05:20:46;6.45;;;1.48;;
55728;SDS011;41633;39.720;2.910;2023-03-23T05:23:14;4.80;;;1.40;;
55728;SDS011;41633;39.720;2.910;2023-03-23T05:25:43;5.35;;;1.40;;
55728;SDS011;41633;39.720;2.910;2023-03-23T05:28:11;6.50;;;1.60;;
55728;SDS011;41633;39.720;2.910;2023-03-23T05:30:38;5.38;;;1.63;;
55728;SDS011;41633;39.720;2.910;2023-03-23T05:33:06;7.03;;;1.80;;
55728;SDS011;41633;39.720;2.910;2023-03-23T05:35:35;8.50;;;2.00;;
55728;SDS011;41633;39.720;2.910;2023-03-23T05:38:01;6.07;;;1.83;;
55728;SDS011;41633;39.720;2.910;2023-03-23T05:40:28;6.68;;;1.60;;
55728;SDS011;41633;39.720;2.910;2023-03-23T05:42:57;7.32;;;1.70;;
55728;SDS011;41633;39.720;2.910;2023-03-23T05:45:26;5.93;;;1.70;;
55728;SDS011;41633;39.720;2.910;2023-03-23T05:47:53;6.55;;;1.80;;
55728;SDS011;41633;39.720;2.910;2023-03-23T05:50:22;6.07;;;1.58;;
55728;SDS011;41633;39.720;2.910;2023-03-23T05:52:50;9.27;;;2.10;;
55728;SDS011;41633;39.720;2.910;2023-03-23T05:55:18;10.82;;;2.10;;
55728;SDS011;41633;39.720;2.910;2023-03-23T05:57:45;7.38;;;2.13;;
55728;SDS011;41633;39.720;2.910;2023-03-23T06:00:13;7.70;;;2.13;;
55728;SDS011;41633;39.720;2.910;2023-03-23T06:02:54;8.05;;;2.75;;
55728;SDS011;41633;39.720;2.910;2023-03-23T06:05:24;10.98;;;2.95;;
55728;SDS011;41633;39.720;2.910;2023-03-23T06:07:52;8.43;;;2.53;;
55728;SDS011;41633;39.720;2.910;2023-03-23T06:10:20;8.98;;;2.20;;
55728;SDS011;41633;39.720;2.910;2023-03-23T06:12:47;10.07;;;2.35;;
55728;SDS011;41633;39.720;2.910;2023-03-23T06:15:18;9.73;;;1.88;;
55728;SDS011;41633;39.720;2.910;2023-03-23T06:17:47;7.90;;;1.83;;
55728;SDS011;41633;39.720;2.910;2023-03-23T06:20:17;6.70;;;1.80;;
55728;SDS011;41633;39.720;2.910;2023-03-23T06:22:46;6.63;;;1.70;;
55728;SDS011;41633;39.720;2.910;2023-03-23T06:25:13;6.75;;;1.80;;
55728;SDS011;41633;39.720;2.910;2023-03-23T06:27:42;6.70;;;1.88;;
55728;SDS011;41633;39.720;2.910;2023-03-23T06:30:12;6.97;;;1.85;;
55728;SDS011;41633;39.720;2.910;2023-03-23T06:32:42;8.20;;;2.35;;
55728;SDS011;41633;39.720;2.910;2023-03-23T06:35:12;8.68;;;2.10;;
55728;SDS011;41633;39.720;2.910;2023-03-23T06:37:42;9.65;;;2.03;;
55728;SDS011;41633;39.720;2.910;2023-03-23T06:40:12;9.50;;;2.45;;
55728;SDS011;41633;39.720;2.910;2023-03-23T06:42:39;9.30;;;2.45;;
55728;SDS011;41633;39.720;2.910;2023-03-23T06:45:08;12.05;;;2.03;;
55728;SDS011;41633;39.720;2.910;2023-03-23T06:47:35;11.43;;;2.17;;
55728;SDS011;41633;39.720;2.910;2023-03-23T06:50:03;16.75;;;2.53;;
55728;SDS011;41633;39.720;2.910;2023-03-23T06:52:31;9.38;;;2.05;;
55728;SDS011;41633;39.720;2.910;2023-03-23T06:54:59;12.23;;;2.30;;
55728;SDS011;41633;39.720;2.910;2023-03-23T06:57:27;15.75;;;2.38;;
55728;SDS011;41633;39.720;2.910;2023-03-23T06:59:56;8.90;;;2.00;;
55728;SDS011;41633;39.720;2.910;2023-03-23T07:02:23;8.52;;;2.00;;
55728;SDS011;41633;39.720;2.910;2023-03-23T07:04:52;11.90;;;2.47;;
55728;SDS011;41633;39.720;2.910;2023-03-23T07:07:21;8.55;;;2.30;;
55728;SDS011;41633;39.720;2.910;2023-03-23T07:09:47;8.80;;;2.40;;
55728;SDS011;41633;39.720;2.910;2023-03-23T07:12:15;10.00;;;2.08;;
55728;SDS011;41633;39.720;2.910;2023-03-23T07:14:44;8.63;;;2.33;;
55728;SDS011;41633;39.720;2.910;2023-03-23T07:17:11;7.28;;;1.75;;
55728;SDS011;41633;39.720;2.910;2023-03-23T07:19:39;7.57;;;1.70;;
55728;SDS011;41633;39.720;2.910;2023-03-23T07:22:07;6.72;;;1.90;;
55728;SDS011;41633;39.720;2.910;2023-03-23T07:24:35;6.57;;;1.45;;
55728;SDS011;41633;39.720;2.910;2023-03-23T07:27:04;8.85;;;2.00;;
55728;SDS011;41633;39.720;2.910;2023-03-23T07:29:30;9.35;;;1.90;;
55728;SDS011;41633;39.720;2.910;2023-03-23T07:32:00;11.27;;;1.83;;
55728;SDS011;41633;39.720;2.910;2023-03-23T07:34:27;8.63;;;1.73;;
55728;SDS011;41633;39.720;2.910;2023-03-23T07:36:55;7.75;;;1.70;;
55728;SDS011;41633;39.720;2.910;2023-03-23T07:39:22;8.60;;;1.80;;
55728;SDS011;41633;39.720;2.910;2023-03-23T07:41:50;5.90;;;1.50;;
55728;SDS011;41633;39.720;2.910;2023-03-23T07:44:17;5.97;;;1.30;;
55728;SDS011;41633;39.720;2.910;2023-03-23T07:49:11;4.43;;;1.17;;
55728;SDS011;41633;39.720;2.910;2023-03-23T07:51:40;3.67;;;1.10;;
55728;SDS011;41633;39.720;2.910;2023-03-23T07:54:09;10.65;;;1.50;;
55728;SDS011;41633;39.720;2.910;2023-03-23T07:56:37;8.32;;;1.50;;
55728;SDS011;41633;39.720;2.910;2023-03-23T07:59:08;4.63;;;1.13;;
55728;SDS011;41633;39.720;2.910;2023-03-23T08:01:37;5.53;;;1.33;;
55728;SDS011;41633;39.720;2.910;2023-03-23T08:04:04;6.72;;;1.30;;
55728;SDS011;41633;39.720;2.910;2023-03-23T08:06:33;7.05;;;1.05;;
55728;SDS011;41633;39.720;2.910;2023-03-23T08:09:02;7.50;;;1.27;;
55728;SDS011;41633;39.720;2.910;2023-03-23T08:11:34;7.15;;;1.40;;
55728;SDS011;41633;39.720;2.910;2023-03-23T08:14:01;6.15;;;1.15;;
55728;SDS011;41633;39.720;2.910;2023-03-23T08:16:29;9.23;;;1.40;;
55728;SDS011;41633;39.720;2.910;2023-03-23T08:18:57;6.57;;;1.30;;
55728;SDS011;41633;39.720;2.910;2023-03-23T08:21:25;7.60;;;1.27;;
55728;SDS011;41633;39.720;2.910;2023-03-23T08:23:53;9.98;;;1.80;;
55728;SDS011;41633;39.720;2.910;2023-03-23T08:26:22;7.28;;;1.50;;
55728;SDS011;41633;39.720;2.910;2023-03-23T08:28:53;6.50;;;1.33;;
55728;SDS011;41633;39.720;2.910;2023-03-23T08:36:14;8.48;;;1.50;;
55728;SDS011;41633;39.720;2.910;2023-03-23T08:38:42;6.63;;;1.40;;
55728;SDS011;41633;39.720;2.910;2023-03-23T08:41:10;8.30;;;1.33;;
55728;SDS011;41633;39.720;2.910;2023-03-23T08:43:38;5.88;;;1.38;;
55728;SDS011;41633;39.720;2.910;2023-03-23T08:46:06;8.88;;;1.48;;
55728;SDS011;41633;39.720;2.910;2023-03-23T08:48:37;6.32;;;1.48;;
55728;SDS011;41633;39.720;2.910;2023-03-23T08:51:05;8.10;;;1.88;;
55728;SDS011;41633;39.720;2.910;2023-03-23T08:53:36;9.60;;;1.80;;
55728;SDS011;41633;39.720;2.910;2023-03-23T08:56:08;6.22;;;1.27;;
55728;SDS011;41633;39.720;2.910;2023-03-23T08:58:48;6.10;;;1.55;;
55728;SDS011;41633;39.720;2.910;2023-03-23T09:01:16;8.93;;;1.80;;
55728;SDS011;41633;39.720;2.910;2023-03-23T09:03:43;7.50;;;1.80;;
55728;SDS011;41633;39.720;2.910;2023-03-23T09:06:12;7.13;;;1.58;;
55728;SDS011;41633;39.720;2.910;2023-03-23T09:08:40;5.95;;;1.55;;
55728;SDS011;41633;39.720;2.910;2023-03-23T09:11:08;5.53;;;1.50;;
55728;SDS011;41633;39.720;2.910;2023-03-23T09:13:38;6.80;;;1.60;;
55728;SDS011;41633;39.720;2.910;2023-03-23T09:16:07;7.53;;;1.95;;
55728;SDS011;41633;39.720;2.910;2023-03-23T09:18:35;6.45;;;1.52;;
55728;SDS011;41633;39.720;2.910;2023-03-23T09:21:04;7.45;;;2.00;;
55728;SDS011;41633;39.720;2.910;2023-03-23T09:23:32;11.95;;;2.28;;
55728;SDS011;41633;39.720;2.910;2023-03-23T09:26:00;7.95;;;2.17;;
55728;SDS011;41633;39.720;2.910;2023-03-23T09:28:29;7.28;;;1.83;;
55728;SDS011;41633;39.720;2.910;2023-03-23T09:30:57;7.93;;;2.10;;
55728;SDS011;41633;39.720;2.910;2023-03-23T09:33:25;8.93;;;1.80;;
55728;SDS011;41633;39.720;2.910;2023-03-23T09:35:54;11.38;;;2.75;;
55728;SDS011;41633;39.720;2.910;2023-03-23T09:38:21;10.10;;;2.65;;
55728;SDS011;41633;39.720;2.910;2023-03-23T09:48:59;7.97;;;2.45;;
55728;SDS011;41633;39.720;2.910;2023-03-23T09:51:50;7.38;;;2.42;;
55728;SDS011;41633;39.720;2.910;2023-03-23T09:54:38;7.97;;;1.85;;
55728;SDS011;41633;39.720;2.910;2023-03-23T10:00:11;11.07;;;1.95;;
55728;SDS011;41633;39.720;2.910;2023-03-23T10:02:47;7.13;;;1.58;;
55728;SDS011;41633;39.720;2.910;2023-03-23T10:08:02;8.27;;;2.05;;
55728;SDS011;41633;39.720;2.910;2023-03-23T10:10:41;7.70;;;2.10;;
55728;SDS011;41633;39.720;2.910;2023-03-23T10:13:16;8.63;;;2.20;;
55728;SDS011;41633;39.720;2.910;2023-03-23T10:15:47;8.43;;;1.77;;
55728;SDS011;41633;39.720;2.910;2023-03-23T10:21:01;8.13;;;1.90;;
55728;SDS011;41633;39.720;2.910;2023-03-23T10:28:55;5.70;;;1.55;;
55728;SDS011;41633;39.720;2.910;2023-03-23T10:31:27;8.32;;;1.67;;
55728;SDS011;41633;39.720;2.910;2023-03-23T10:33:57;9.15;;;1.55;;
55728;SDS011;41633;39.720;2.910;2023-03-23T10:36:35;6.93;;;1.52;;
55728;SDS011;41633;39.720;2.910;2023-03-23T10:39:13;5.90;;;1.60;;
55728;SDS011;41633;39.720;2.910;2023-03-23T10:41:41;8.25;;;1.73;;
55728;SDS011;41633;39.720;2.910;2023-03-23T10:44:16;6.50;;;1.90;;
55728;SDS011;41633;39.720;2.910;2023-03-23T10:47:03;10.53;;;3.47;;
55728;SDS011;41633;39.720;2.910;2023-03-23T10:57:33;10.13;;;2.38;;
55728;SDS011;41633;39.720;2.910;2023-03-23T11:02:46;6.07;;;1.55;;
55728;SDS011;41633;39.720;2.910;2023-03-23T11:05:18;6.35;;;1.70;;
55728;SDS011;41633;39.720;2.910;2023-03-23T11:07:56;4.90;;;1.20;;
55728;SDS011;41633;39.720;2.910;2023-03-23T11:10:25;4.85;;;1.30;;
55728;SDS011;41633;39.720;2.910;2023-03-23T11:12:58;4.60;;;1.00;;
55728;SDS011;41633;39.720;2.910;2023-03-23T11:15:33;4.65;;;0.90;;
55728;SDS011;41633;39.720;2.910;2023-03-23T11:18:04;6.57;;;1.50;;
55728;SDS011;41633;39.720;2.910;2023-03-23T11:20:42;7.43;;;1.65;;
55728;SDS011;41633;39.720;2.910;2023-03-23T11:23:29;4.45;;;1.10;;
55728;SDS011;41633;39.720;2.910;2023-03-23T11:28:46;4.70;;;1.15;;
55728;SDS011;41633;39.720;2.910;2023-03-23T11:31:16;6.45;;;1.48;;
55728;SDS011;41633;39.720;2.910;2023-03-23T11:33:57;5.10;;;1.10;;
55728;SDS011;41633;39.720;2.910;2023-03-23T11:36:36;6.25;;;1.40;;
55728;SDS011;41633;39.720;2.910;2023-03-23T11:41:53;7.10;;;1.10;;
55728;SDS011;41633;39.720;2.910;2023-03-23T11:44:23;5.82;;;1.10;;
55728;SDS011;41633;39.720;2.910;2023-03-23T11:47:04;4.97;;;1.10;;
55728;SDS011;41633;39.720;2.910;2023-03-23T11:54:56;6.55;;;1.92;;
55728;SDS011;41633;39.720;2.910;2023-03-23T11:59:55;5.55;;;1.40;;
55728;SDS011;41633;39.720;2.910;2023-03-23T12:05:38;5.97;;;1.05;;
55728;SDS011;41633;39.720;2.910;2023-03-23T12:11:14;5.70;;;1.33;;
55728;SDS011;41633;39.720;2.910;2023-03-23T12:37:56;8.75;;;1.60;;
55728;SDS011;41633;39.720;2.910;2023-03-23T12:49:20;11.48;;;1.85;;
55728;SDS011;41633;39.720;2.910;2023-03-23T13:02:30;8.45;;;1.80;;
55728;SDS011;41633;39.720;2.910;2023-03-23T13:05:42;7.85;;;1.90;;
55728;SDS011;41633;39.720;2.910;2023-03-23T13:10:44;6.47;;;1.75;;
55728;SDS011;41633;39.720;2.910;2023-03-23T13:13:19;5.80;;;1.50;;
55728;SDS011;41633;39.720;2.910;2023-03-23T13:18:45;9.20;;;1.92;;
55728;SDS011;41633;39.720;2.910;2023-03-23T13:21:25;6.45;;;1.50;;
55728;SDS011;41633;39.720;2.910;2023-03-23T13:23:54;5.28;;;1.35;;
55728;SDS011;41633;39.720;2.910;2023-03-23T13:26:23;6.75;;;1.52;;
55728;SDS011;41633;39.720;2.910;2023-03-23T13:31:35;7.25;;;1.27;;
55728;SDS011;41633;39.720;2.910;2023-03-23T13:34:18;4.43;;;1.38;;
55728;SDS011;41633;39.720;2.910;2023-03-23T13:36:55;5.97;;;1.30;;
55728;SDS011;41633;39.720;2.910;2023-03-23T13:42:18;7.88;;;1.30;;
55728;SDS011;41633;39.720;2.910;2023-03-23T14:01:18;5.68;;;1.27;;
55728;SDS011;41633;39.720;2.910;2023-03-23T14:03:34;5.78;;;1.30;;
55728;SDS011;41633;39.720;2.910;2023-03-23T14:06:08;4.32;;;1.08;;
55728;SDS011;41633;39.720;2.910;2023-03-23T14:08:40;4.88;;;1.25;;
55728;SDS011;41633;39.720;2.910;2023-03-23T14:11:24;6.35;;;1.50;;
55728;SDS011;41633;39.720;2.910;2023-03-23T14:14:04;4.22;;;0.98;;
55728;SDS011;41633;39.720;2.910;2023-03-23T14:19:04;13.63;;;1.90;;
55728;SDS011;41633;39.720;2.910;2023-03-23T14:21:42;5.40;;;1.20;;
55728;SDS011;41633;39.720;2.910;2023-03-23T14:24:18;5.63;;;1.08;;
55728;SDS011;41633;39.720;2.910;2023-03-23T14:26:50;4.43;;;1.23;;
55728;SDS011;41633;39.720;2.910;2023-03-23T14:29:19;4.50;;;0.93;;
55728;SDS011;41633;39.720;2.910;2023-03-23T14:31:49;6.47;;;1.15;;
55728;SDS011;41633;39.720;2.910;2023-03-23T14:34:19;5.22;;;1.10;;
55728;SDS011;41633;39.720;2.910;2023-03-23T14:36:47;5.43;;;1.20;;
55728;SDS011;41633;39.720;2.910;2023-03-23T14:39:31;5.20;;;1.10;;
55728;SDS011;41633;39.720;2.910;2023-03-23T14:42:06;6.32;;;1.30;;
55728;SDS011;41633;39.720;2.910;2023-03-23T14:44:38;5.05;;;1.15;;
55728;SDS011;41633;39.720;2.910;2023-03-23T14:47:08;6.50;;;0.90;;
55728;SDS011;41633;39.720;2.910;2023-03-23T14:49:37;5.20;;;1.23;;
55728;SDS011;41633;39.720;2.910;2023-03-23T14:52:09;6.38;;;1.10;;
55728;SDS011;41633;39.720;2.910;2023-03-23T14:54:38;5.00;;;1.17;;
55728;SDS011;41633;39.720;2.910;2023-03-23T14:57:19;7.03;;;1.40;;
55728;SDS011;41633;39.720;2.910;2023-03-23T15:00:04;10.00;;;1.17;;
55728;SDS011;41633;39.720;2.910;2023-03-23T15:02:35;7.20;;;1.70;;
55728;SDS011;41633;39.720;2.910;2023-03-23T15:05:18;6.47;;;1.77;;
55728;SDS011;41633;39.720;2.910;2023-03-23T15:07:47;7.70;;;1.40;;
55728;SDS011;41633;39.720;2.910;2023-03-23T15:10:19;6.18;;;1.50;;
55728;SDS011;41633;39.720;2.910;2023-03-23T15:12:48;4.50;;;1.17;;
55728;SDS011;41633;39.720;2.910;2023-03-23T15:15:30;5.13;;;1.10;;
55728;SDS011;41633;39.720;2.910;2023-03-23T15:18:01;5.07;;;1.00;;
55728;SDS011;41633;39.720;2.910;2023-03-23T15:20:32;7.75;;;1.33;;
55728;SDS011;41633;39.720;2.910;2023-03-23T15:23:13;7.40;;;1.27;;
55728;SDS011;41633;39.720;2.910;2023-03-23T15:25:40;11.65;;;1.90;;
55728;SDS011;41633;39.720;2.910;2023-03-23T15:28:17;9.70;;;1.65;;
55728;SDS011;41633;39.720;2.910;2023-03-23T15:30:52;15.18;;;1.92;;
55728;SDS011;41633;39.720;2.910;2023-03-23T15:33:20;11.13;;;2.20;;
55728;SDS011;41633;39.720;2.910;2023-03-23T15:35:54;10.25;;;1.88;;
55728;SDS011;41633;39.720;2.910;2023-03-23T15:38:31;7.82;;;1.35;;
55728;SDS011;41633;39.720;2.910;2023-03-23T15:41:01;4.72;;;1.10;;
55728;SDS011;41633;39.720;2.910;2023-03-23T15:43:28;9.73;;;1.52;;
55728;SDS011;41633;39.720;2.910;2023-03-23T15:45:58;5.95;;;1.23;;
55728;SDS011;41633;39.720;2.910;2023-03-23T15:48:31;5.55;;;1.00;;
55728;SDS011;41633;39.720;2.910;2023-03-23T15:51:09;6.10;;;1.05;;
55728;SDS011;41633;39.720;2.910;2023-03-23T15:53:36;5.30;;;1.20;;
55728;SDS011;41633;39.720;2.910;2023-03-23T15:56:04;7.07;;;1.10;;
55728;SDS011;41633;39.720;2.910;2023-03-23T15:58:32;6.70;;;1.05;;
55728;SDS011;41633;39.720;2.910;2023-03-23T16:01:01;5.68;;;1.20;;
55728;SDS011;41633;39.720;2.910;2023-03-23T16:03:34;5.15;;;1.17;;
55728;SDS011;41633;39.720;2.910;2023-03-23T16:06:01;7.38;;;1.20;;
55728;SDS011;41633;39.720;2.910;2023-03-23T16:08:29;4.80;;;1.08;;
55728;SDS011;41633;39.720;2.910;2023-03-23T16:10:56;4.70;;;0.90;;
55728;SDS011;41633;39.720;2.910;2023-03-23T16:13:26;7.22;;;0.90;;
55728;SDS011;41633;39.720;2.910;2023-03-23T16:15:54;2.78;;;0.90;;
55728;SDS011;41633;39.720;2.910;2023-03-23T16:18:22;4.68;;;0.90;;
55728;SDS011;41633;39.720;2.910;2023-03-23T16:20:51;6.32;;;1.00;;
55728;SDS011;41633;39.720;2.910;2023-03-23T16:23:19;5.35;;;1.13;;
55728;SDS011;41633;39.720;2.910;2023-03-23T16:25:47;7.43;;;1.35;;
55728;SDS011;41633;39.720;2.910;2023-03-23T16:28:15;5.85;;;1.73;;
55728;SDS011;41633;39.720;2.910;2023-03-23T16:30:53;10.32;;;3.70;;
55728;SDS011;41633;39.720;2.910;2023-03-23T16:33:22;8.02;;;2.80;;
55728;SDS011;41633;39.720;2.910;2023-03-23T16:35:49;6.53;;;1.98;;
55728;SDS011;41633;39.720;2.910;2023-03-23T16:38:18;12.27;;;2.50;;
55728;SDS011;41633;39.720;2.910;2023-03-23T16:40:47;10.23;;;2.50;;
55728;SDS011;41633;39.720;2.910;2023-03-23T16:43:13;10.30;;;2.63;;
55728;SDS011;41633;39.720;2.910;2023-03-23T16:45:41;6.22;;;1.30;;
55728;SDS011;41633;39.720;2.910;2023-03-23T16:48:09;10.60;;;1.42;;
55728;SDS011;41633;39.720;2.910;2023-03-23T16:50:37;5.43;;;1.30;;
55728;SDS011;41633;39.720;2.910;2023-03-23T16:53:06;5.72;;;1.17;;
55728;SDS011;41633;39.720;2.910;2023-03-23T16:55:34;7.72;;;1.35;;
55728;SDS011;41633;39.720;2.910;2023-03-23T16:58:02;6.90;;;1.60;;
55728;SDS011;41633;39.720;2.910;2023-03-23T17:00:30;8.18;;;1.40;;
55728;SDS011;41633;39.720;2.910;2023-03-23T17:03:01;5.85;;;1.50;;
55728;SDS011;41633;39.720;2.910;2023-03-23T17:05:30;7.75;;;1.52;;
55728;SDS011;41633;39.720;2.910;2023-03-23T17:07:59;6.68;;;1.60;;
55728;SDS011;41633;39.720;2.910;2023-03-23T17:10:27;6.05;;;1.42;;
55728;SDS011;41633;39.720;2.910;2023-03-23T17:13:00;4.90;;;1.42;;
55728;SDS011;41633;39.720;2.910;2023-03-23T17:15:27;6.35;;;1.52;;
55728;SDS011;41633;39.720;2.910;2023-03-23T17:17:55;5.32;;;1.48;;
55728;SDS011;41633;39.720;2.910;2023-03-23T17:20:22;6.85;;;1.40;;
55728;SDS011;41633;39.720;2.910;2023-03-23T17:22:51;6.03;;;1.67;;
55728;SDS011;41633;39.720;2.910;2023-03-23T17:25:19;7.15;;;1.90;;
55728;SDS011;41633;39.720;2.910;2023-03-23T17:27:47;9.05;;;2.13;;
55728;SDS011;41633;39.720;2.910;2023-03-23T17:30:17;8.90;;;1.90;;
55728;SDS011;41633;39.720;2.910;2023-03-23T17:32:45;8.55;;;1.70;;
55728;SDS011;41633;39.720;2.910;2023-03-23T17:35:13;9.25;;;2.47;;
55728;SDS011;41633;39.720;2.910;2023-03-23T17:37:40;9.82;;;2.63;;
55728;SDS011;41633;39.720;2.910;2023-03-23T17:40:08;8.70;;;2.42;;